Time;durP1;ratioP1;P1;durP2;ratioP2;P2;SDS_P1;SDS_P2;PMS_P1;PMS_P2;Temp;Humidity;BMP_temperature;BMP_pressure;BME280_temperature;BME280_humidity;BME280_pressure;Samples;Min_cycle;Max_cycle;Signal;HPM_P1;HPM_P2
2023/06/04 00:01:40;;;;;;;6.03;1.50;;;16.30;78.30;;;;;;5011745;28;20109;-52
2023/06/04 00:04:05;;;;;;;4.45;1.05;;;16.20;78.30;;;;;;5010481;28;20033;-55
2023/06/04 00:06:31;;;;;;;1.63;1.48;;;16.20;78.40;;;;;;5012123;28;20022;-55
2023/06/04 00:08:56;;;;;;;3.97;1.27;;;16.10;78.50;;;;;;5012193;28;20030;-55
2023/06/04 00:11:22;;;;;;;1.77;1.48;;;16.10;78.60;;;;;;5010373;28;20478;-55
2023/06/04 00:13:48;;;;;;;2.92;1.73;;;16.10;78.60;;;;;;5011819;28;20037;-55
2023/06/04 00:16:14;;;;;;;6.75;3.88;;;16.10;78.80;;;;;;5031821;23;20047;-51
2023/06/04 00:18:39;;;;;;;1.92;1.83;;;16.00;78.80;;;;;;5032288;28;20021;-53
2023/06/04 00:21:05;;;;;;;4.88;1.85;;;16.00;78.70;;;;;;5018268;28;20402;-50
2023/06/04 00:23:30;;;;;;;2.65;1.55;;;16.00;78.90;;;;;;5010368;28;20091;-50
2023/06/04 00:25:56;;;;;;;4.50;1.75;;;15.90;78.80;;;;;;5020173;28;20029;-50
2023/06/04 00:28:21;;;;;;;9.48;3.00;;;15.90;78.90;;;;;;5046723;28;20481;-54
2023/06/04 00:30:47;;;;;;;1.40;1.25;;;15.80;79.00;;;;;;5030961;28;20024;-49
2023/06/04 00:33:12;;;;;;;7.07;1.70;;;15.90;79.10;;;;;;5031456;28;20030;-54
2023/06/04 00:35:38;;;;;;;5.47;2.20;;;15.80;79.10;;;;;;5029657;28;20026;-51
2023/06/04 00:38:03;;;;;;;3.85;1.58;;;15.80;79.30;;;;;;5031458;28;20025;-54
2023/06/04 00:40:29;;;;;;;1.80;1.38;;;15.80;79.30;;;;;;5030879;28;20025;-51
2023/06/04 00:42:55;;;;;;;3.40;1.75;;;15.70;79.30;;;;;;5030966;28;20029;-51
2023/06/04 00:45:21;;;;;;;5.30;1.45;;;15.70;79.40;;;;;;5030807;28;20017;-51
2023/06/04 00:47:47;;;;;;;1.58;1.38;;;15.70;80.00;;;;;;5031272;28;20032;-54
2023/06/04 00:50:13;;;;;;;1.77;1.63;;;15.70;79.80;;;;;;5030825;28;20032;-50
2023/06/04 00:52:39;;;;;;;5.55;1.80;;;15.60;79.50;;;;;;5030938;28;20026;-52
2023/06/04 00:55:05;;;;;;;3.30;1.70;;;15.60;79.70;;;;;;5031196;28;20421;-49
2023/06/04 00:57:30;;;;;;;5.25;1.48;;;15.60;79.70;;;;;;5031038;28;20497;-52
2023/06/04 00:59:56;;;;;;;5.20;1.27;;;15.50;79.80;;;;;;5031059;28;20096;-55
2023/06/04 01:02:24;;;;;;;1.67;1.35;;;15.50;79.90;;;;;;5030690;28;20549;-50
2023/06/04 01:05:10;;;;;;;3.42;1.63;;;15.50;80.00;;;;;;5030780;28;20389;-49
2023/06/04 01:07:36;;;;;;;2.33;1.45;;;15.40;80.20;;;;;;5031144;28;20032;-50
2023/06/04 01:10:02;;;;;;;6.97;1.67;;;15.40;79.90;;;;;;5031084;28;20500;-53
2023/06/04 01:12:28;;;;;;;6.75;1.52;;;15.40;80.00;;;;;;5030525;28;20057;-51
2023/06/04 01:14:53;;;;;;;3.42;1.67;;;15.40;80.20;;;;;;5030689;28;20397;-50
2023/06/04 01:17:37;;;;;;;4.88;1.63;;;15.30;80.30;;;;;;5030858;28;20052;-52
2023/06/04 01:20:33;;;;;;;2.95;1.42;;;15.30;80.30;;;;;;5031018;28;20033;-50
2023/06/04 01:23:14;;;;;;;3.65;1.58;;;15.30;80.40;;;;;;5031140;28;20499;-53
2023/06/04 01:25:43;;;;;;;1.58;1.42;;;15.30;80.50;;;;;;5030784;28;20548;-54
2023/06/04 01:28:11;;;;;;;5.28;2.83;;;15.20;80.50;;;;;;5031047;28;20114;-53
2023/06/04 01:30:48;;;;;;;1.55;1.33;;;15.20;80.60;;;;;;5030471;28;20021;-49
2023/06/04 01:33:15;;;;;;;3.83;1.80;;;15.20;80.90;;;;;;5030615;28;20486;-54
2023/06/04 01:35:41;;;;;;;3.67;1.95;;;15.20;81.00;;;;;;5029633;28;20033;-53
2023/06/04 01:38:07;;;;;;;2.92;1.63;;;15.10;81.00;;;;;;5030879;28;20025;-50
2023/06/04 01:40:33;;;;;;;2.03;1.13;;;15.10;81.30;;;;;;5030278;28;20620;-49
2023/06/04 01:42:59;;;;;;;1.20;1.05;;;15.00;81.40;;;;;;5030498;28;20100;-49
2023/06/04 01:45:26;;;;;;;4.55;1.65;;;15.00;81.70;;;;;;5030544;28;20075;-48
2023/06/04 01:47:52;;;;;;;2.83;1.65;;;15.00;81.60;;;;;;5032063;28;20029;-49
2023/06/04 01:50:18;;;;;;;3.88;1.98;;;15.00;81.60;;;;;;5033946;28;20033;-52
2023/06/04 01:52:44;;;;;;;8.05;1.70;;;15.00;81.80;;;;;;5034160;28;20212;-54
2023/06/04 01:55:12;;;;;;;2.30;1.40;;;15.00;81.90;;;;;;5050178;28;20560;-52
2023/06/04 01:57:38;;;;;;;3.10;1.83;;;15.00;82.00;;;;;;5035104;28;20029;-55
2023/06/04 02:00:10;;;;;;;2.67;1.60;;;14.90;82.10;;;;;;5034449;28;20312;-54
2023/06/04 02:02:36;;;;;;;4.78;1.70;;;14.90;82.30;;;;;;5034214;28;20021;-53
2023/06/04 02:05:07;;;;;;;5.20;1.67;;;14.80;82.70;;;;;;5033929;28;20026;-52
2023/06/04 02:07:34;;;;;;;4.07;1.80;;;14.80;82.90;;;;;;5034034;28;20048;-57
2023/06/04 02:10:00;;;;;;;2.53;1.60;;;14.70;82.90;;;;;;5033844;28;20083;-53
2023/06/04 02:12:25;;;;;;;1.48;1.30;;;14.70;83.20;;;;;;5033418;28;20033;-54
2023/06/04 02:14:51;;;;;;;3.05;2.08;;;14.60;83.20;;;;;;5033398;28;20470;-53
2023/06/04 02:17:16;;;;;;;4.25;2.05;;;14.70;84.00;;;;;;5033581;28;20045;-50
2023/06/04 02:19:44;;;;;;;3.58;2.10;;;14.60;83.60;;;;;;5033857;28;20040;-50
2023/06/04 02:22:11;;;;;;;2.97;1.63;;;14.50;83.80;;;;;;5033203;28;20025;-51
2023/06/04 02:24:38;;;;;;;4.35;1.75;;;14.40;84.00;;;;;;5033173;28;20064;-49
2023/06/04 02:27:05;;;;;;;12.43;1.80;;;14.50;84.20;;;;;;5033419;28;20156;-49
2023/06/04 02:29:31;;;;;;;3.78;2.10;;;14.40;84.50;;;;;;5033496;28;20053;-50
2023/06/04 02:31:56;;;;;;;2.15;1.90;;;14.40;84.60;;;;;;5033108;28;20075;-50
2023/06/04 02:34:23;;;;;;;4.15;2.05;;;14.40;84.70;;;;;;5033171;28;20026;-53
2023/06/04 02:36:50;;;;;;;6.55;1.75;;;14.30;84.80;;;;;;5032336;28;20489;-52
2023/06/04 02:39:16;;;;;;;7.78;1.90;;;14.20;85.10;;;;;;5033361;28;20405;-54
2023/06/04 02:41:42;;;;;;;4.32;1.48;;;14.20;85.40;;;;;;5032902;28;20033;-55
2023/06/04 02:44:07;;;;;;;2.83;1.90;;;14.20;85.50;;;;;;5048237;28;20459;-52
2023/06/04 02:46:33;;;;;;;2.22;1.92;;;14.10;85.60;;;;;;5033144;28;20103;-50
2023/06/04 02:48:59;;;;;;;3.88;2.70;;;14.10;85.70;;;;;;5033210;28;20026;-55
2023/06/04 02:51:25;;;;;;;6.88;1.98;;;14.10;85.90;;;;;;5032742;28;20049;-52
2023/06/04 02:53:50;;;;;;;4.68;1.70;;;14.10;86.00;;;;;;5032643;28;20101;-50
2023/06/04 02:56:16;;;;;;;5.07;1.58;;;14.00;86.00;;;;;;5032991;28;20389;-52
2023/06/04 02:58:51;;;;;;;3.15;1.67;;;14.00;86.30;;;;;;5032866;28;20558;-51
2023/06/04 03:01:24;;;;;;;2.35;1.92;;;14.00;86.30;;;;;;5032876;28;20473;-49
2023/06/04 03:03:49;;;;;;;7.00;1.98;;;13.90;86.50;;;;;;5032679;28;20022;-51
2023/06/04 03:06:17;;;;;;;6.40;2.17;;;13.90;86.50;;;;;;5032754;28;20030;-49
2023/06/04 03:08:43;;;;;;;4.25;1.50;;;13.80;86.60;;;;;;5032767;28;20030;-52
2023/06/04 03:11:09;;;;;;;3.05;2.50;;;13.80;86.90;;;;;;5032611;28;20057;-50
2023/06/04 03:13:35;;;;;;;5.63;2.33;;;13.70;87.10;;;;;;5032474;28;20026;-51
2023/06/04 03:16:01;;;;;;;5.88;1.70;;;13.70;87.30;;;;;;5032510;28;20033;-54
2023/06/04 03:18:30;;;;;;;3.83;1.70;;;13.70;87.40;;;;;;5032715;28;20025;-52
2023/06/04 03:20:56;;;;;;;5.13;1.77;;;13.60;87.50;;;;;;5031943;28;20026;-55
2023/06/04 03:23:22;;;;;;;5.65;1.80;;;13.70;87.60;;;;;;5032103;28;20022;-53
2023/06/04 03:25:47;;;;;;;7.95;1.90;;;13.70;87.60;;;;;;5032399;28;20040;-53
2023/06/04 03:28:13;;;;;;;3.67;1.88;;;13.70;87.50;;;;;;5032494;28;20030;-52
2023/06/04 03:30:40;;;;;;;3.25;1.88;;;13.70;87.50;;;;;;5031918;28;20022;-49
2023/06/04 03:33:05;;;;;;;3.15;1.95;;;13.70;87.60;;;;;;5032034;28;20029;-54
2023/06/04 03:35:31;;;;;;;3.10;1.73;;;13.70;87.70;;;;;;5031072;28;20029;-49
2023/06/04 03:37:56;;;;;;;2.65;1.77;;;13.70;87.70;;;;;;5032290;28;20029;-54
2023/06/04 03:40:22;;;;;;;6.00;2.08;;;13.70;87.60;;;;;;5031782;28;20105;-50
2023/06/04 03:42:47;;;;;;;5.20;1.92;;;13.70;87.80;;;;;;5030511;28;20029;-53
2023/06/04 03:45:13;;;;;;;6.57;1.67;;;13.70;87.90;;;;;;5031907;28;20133;-53
2023/06/04 03:47:39;;;;;;;5.65;1.80;;;13.70;88.10;;;;;;5031959;28;20026;-50
2023/06/04 03:50:05;;;;;;;2.70;1.80;;;13.70;87.90;;;;;;5031901;28;20058;-54
2023/06/04 03:52:31;;;;;;;6.18;1.60;;;13.70;88.20;;;;;;5046877;28;20029;-54
2023/06/04 03:54:57;;;;;;;3.55;1.70;;;13.80;88.20;;;;;;5031532;28;20029;-51
2023/06/04 03:57:22;;;;;;;7.03;1.80;;;13.70;88.00;;;;;;5031932;28;20026;-54
2023/06/04 03:59:48;;;;;;;3.85;1.92;;;13.80;88.10;;;;;;5031898;28;20051;-54
2023/06/04 04:02:14;;;;;;;9.50;1.90;;;13.70;88.20;;;;;;5031329;28;20029;-53
2023/06/04 04:04:39;;;;;;;1.83;1.60;;;13.70;88.50;;;;;;5031416;28;20029;-53
2023/06/04 04:07:05;;;;;;;5.45;1.90;;;13.80;88.60;;;;;;5031657;28;20029;-51
2023/06/04 04:09:30;;;;;;;3.13;1.83;;;13.80;88.70;;;;;;5031546;28;20079;-54
2023/06/04 04:11:56;;;;;;;3.20;2.10;;;13.80;88.90;;;;;;5030874;28;20095;-54
2023/06/04 04:14:21;;;;;;;2.35;1.60;;;13.90;88.30;;;;;;5031278;28;20032;-55
2023/06/04 04:16:47;;;;;;;2.22;1.67;;;13.90;88.50;;;;;;5046538;28;20034;-52
2023/06/04 04:19:13;;;;;;;3.97;2.15;;;13.90;88.60;;;;;;5031484;28;20025;-51
2023/06/04 04:21:38;;;;;;;3.92;1.80;;;14.00;88.70;;;;;;5030917;28;20033;-50
2023/06/04 04:24:05;;;;;;;3.17;1.67;;;14.00;88.60;;;;;;5031141;28;20029;-53
2023/06/04 04:26:30;;;;;;;3.63;2.05;;;14.10;88.60;;;;;;5031385;28;20445;-53
2023/06/04 04:28:57;;;;;;;4.05;1.98;;;14.10;88.40;;;;;;5031393;28;20025;-52
2023/06/04 04:31:24;;;;;;;4.05;1.95;;;14.20;88.40;;;;;;5030852;28;20017;-53
2023/06/04 04:33:51;;;;;;;5.28;2.42;;;14.30;88.40;;;;;;5031027;28;20056;-53
2023/06/04 04:36:18;;;;;;;4.80;1.75;;;14.40;88.00;;;;;;5030318;28;20557;-53
2023/06/04 04:38:44;;;;;;;5.55;2.45;;;14.40;88.40;;;;;;5031323;28;20053;-47
2023/06/04 04:41:11;;;;;;;2.92;1.80;;;14.60;87.40;;;;;;5030830;28;20029;-50
2023/06/04 04:43:39;;;;;;;3.47;1.83;;;14.80;87.50;;;;;;5031376;28;20049;-51
2023/06/04 04:46:05;;;;;;;2.72;1.55;;;15.00;86.80;;;;;;5031286;28;20071;-53
2023/06/04 04:48:32;;;;;;;4.80;2.22;;;15.00;87.20;;;;;;5031306;28;20083;-52
2023/06/04 04:50:57;;;;;;;2.13;1.92;;;15.20;87.10;;;;;;5030748;28;20385;-50
2023/06/04 04:53:23;;;;;;;1.98;1.88;;;15.40;85.90;;;;;;5030856;28;20117;-52
2023/06/04 04:55:48;;;;;;;8.63;2.70;;;15.70;85.50;;;;;;5031068;28;20029;-51
2023/06/04 04:58:14;;;;;;;3.65;2.15;;;16.30;84.20;;;;;;5031100;28;20112;-54
2023/06/04 05:00:40;;;;;;;4.10;2.05;;;17.10;82.50;;;;;;5030735;28;20022;-53
2023/06/04 05:03:06;;;;;;;2.35;1.85;;;17.80;80.90;;;;;;5030962;28;20025;-52
2023/06/04 05:05:32;;;;;;;2.55;1.70;;;18.50;78.80;;;;;;5031373;28;20037;-54
2023/06/04 05:07:58;;;;;;;4.38;2.05;;;19.00;78.10;;;;;;5031588;28;20053;-52
2023/06/04 05:10:24;;;;;;;2.40;1.70;;;19.60;76.20;;;;;;5030539;28;20115;-55
2023/06/04 05:12:59;;;;;;;11.43;3.10;;;19.60;75.10;;;;;;5030704;28;20036;-53
2023/06/04 05:15:26;;;;;;;5.18;2.03;;;19.60;75.00;;;;;;5031116;28;20112;-52
2023/06/04 05:17:52;;;;;;;2.08;1.52;;;19.50;75.90;;;;;;5031174;28;20025;-50
2023/06/04 05:20:18;;;;;;;6.72;2.15;;;19.40;75.60;;;;;;5030675;28;20393;-53
2023/06/04 05:22:45;;;;;;;1.92;1.65;;;19.10;76.30;;;;;;5048558;28;20029;-51
2023/06/04 05:25:11;;;;;;;4.20;2.17;;;19.30;76.70;;;;;;5049931;28;20464;-51
2023/06/04 05:27:37;;;;;;;3.42;1.80;;;19.60;75.70;;;;;;5034755;28;20105;-50
2023/06/04 05:30:03;;;;;;;4.25;1.70;;;19.90;74.50;;;;;;5034747;28;20196;-50
2023/06/04 05:32:30;;;;;;;4.18;1.95;;;20.00;74.20;;;;;;5034290;28;20025;-52
2023/06/04 05:34:57;;;;;;;2.15;1.58;;;20.10;73.90;;;;;;5034000;28;20554;-49
2023/06/04 05:37:23;;;;;;;4.18;1.80;;;20.50;73.70;;;;;;5033746;28;20064;-52
2023/06/04 05:39:49;;;;;;;3.17;1.50;;;20.60;72.80;;;;;;5034481;28;20022;-51
2023/06/04 05:42:15;;;;;;;2.72;1.80;;;20.50;72.60;;;;;;5034439;28;20029;-54
2023/06/04 05:44:41;;;;;;;2.60;1.80;;;20.50;73.10;;;;;;5033973;28;20036;-55
2023/06/04 05:47:06;;;;;;;2.72;1.70;;;20.70;73.50;;;;;;5034300;28;20025;-49
2023/06/04 05:49:34;;;;;;;4.10;1.58;;;21.00;72.50;;;;;;5034205;28;20060;-50
2023/06/04 05:52:00;;;;;;;2.55;1.73;;;21.50;72.30;;;;;;5033814;28;20032;-49
2023/06/04 05:54:27;;;;;;;2.58;2.38;;;21.60;71.20;;;;;;5033940;28;20393;-51
2023/06/04 05:56:52;;;;;;;3.55;1.48;;;22.00;70.50;;;;;;5034109;28;20026;-48
2023/06/04 05:59:18;;;;;;;5.25;1.50;;;22.10;70.60;;;;;;5034339;28;20040;-48
2023/06/04 06:01:43;;;;;;;5.20;2.28;;;22.20;69.30;;;;;;5033641;28;20022;-51
2023/06/04 06:04:10;;;;;;;4.20;1.75;;;22.50;69.50;;;;;;5033583;28;20026;-49
2023/06/04 06:06:36;;;;;;;2.20;1.42;;;23.00;69.00;;;;;;5033875;28;20043;-49
2023/06/04 06:09:01;;;;;;;2.33;1.42;;;22.80;67.80;;;;;;5033945;28;20018;-48
2023/06/04 06:11:27;;;;;;;3.35;1.48;;;22.50;67.70;;;;;;5033555;28;20017;-48
2023/06/04 06:13:53;;;;;;;3.22;1.55;;;22.00;69.50;;;;;;5033813;28;20079;-48
2023/06/04 06:16:18;;;;;;;5.07;1.88;;;21.90;69.40;;;;;;5034396;28;20037;-52
2023/06/04 06:18:44;;;;;;;2.45;1.48;;;22.20;69.70;;;;;;5033710;28;20100;-48
2023/06/04 06:21:10;;;;;;;2.60;2.00;;;22.30;68.40;;;;;;5033188;28;20026;-49
2023/06/04 06:23:35;;;;;;;3.58;1.35;;;22.40;68.40;;;;;;5033185;28;20048;-49
2023/06/04 06:26:02;;;;;;;2.08;1.35;;;22.60;69.20;;;;;;5033527;28;20231;-49
2023/06/04 06:28:27;;;;;;;2.67;1.67;;;23.00;67.30;;;;;;5033838;28;20091;-50
2023/06/04 06:30:53;;;;;;;3.22;1.80;;;23.30;66.40;;;;;;5033488;28;20022;-49
2023/06/04 06:33:21;;;;;;;4.43;1.40;;;23.60;66.80;;;;;;5032354;28;20026;-51
2023/06/04 06:35:47;;;;;;;1.98;1.77;;;23.70;65.30;;;;;;5032427;28;20105;-48
2023/06/04 06:38:13;;;;;;;3.55;1.83;;;23.40;65.60;;;;;;5033513;28;20091;-51
2023/06/04 06:40:38;;;;;;;1.90;1.15;;;23.10;65.80;;;;;;5033084;28;20025;-49
2023/06/04 06:43:04;;;;;;;3.03;1.67;;;23.20;65.60;;;;;;5033120;28;20100;-52
2023/06/04 06:45:29;;;;;;;1.60;1.50;;;23.20;65.80;;;;;;5032970;28;20443;-52
2023/06/04 06:47:55;;;;;;;5.43;1.25;;;23.30;65.50;;;;;;5033212;28;20502;-51
2023/06/04 06:50:20;;;;;;;1.45;1.25;;;23.30;65.00;;;;;;5032677;28;20055;-53
2023/06/04 06:52:46;;;;;;;4.60;1.50;;;23.10;65.20;;;;;;5032764;28;20021;-49
2023/06/04 06:55:11;;;;;;;5.95;1.45;;;23.20;66.40;;;;;;5033066;28;20033;-51
2023/06/04 06:57:37;;;;;;;4.10;2.17;;;23.30;67.10;;;;;;5033031;28;20030;-49
2023/06/04 07:00:03;;;;;;;1.58;1.48;;;23.40;65.80;;;;;;5032758;28;20045;-49
2023/06/04 07:02:29;;;;;;;1.40;1.27;;;23.40;64.00;;;;;;5032564;28;20048;-51
2023/06/04 07:04:55;;;;;;;2.38;1.10;;;23.20;64.30;;;;;;5032489;28;20037;-52
2023/06/04 07:07:20;;;;;;;2.03;1.60;;;23.00;64.60;;;;;;5033063;28;20029;-51
2023/06/04 07:09:46;;;;;;;2.75;1.70;;;22.50;65.30;;;;;;5032758;28;20029;-50
2023/06/04 07:12:11;;;;;;;1.67;1.58;;;22.00;65.90;;;;;;5032401;28;20100;-50
2023/06/04 07:14:37;;;;;;;4.28;1.55;;;22.30;67.30;;;;;;5032230;28;20078;-49
2023/06/04 07:17:02;;;;;;;5.45;1.30;;;23.00;65.90;;;;;;5047732;28;20033;-51
2023/06/04 07:19:30;;;;;;;1.20;1.10;;;24.40;93.40;;;;;;5032643;28;20564;-51
2023/06/04 07:21:55;;;;;;;3.83;1.90;;;24.40;92.40;;;;;;5032136;28;20033;-50
2023/06/04 07:24:21;;;;;;;5.78;1.42;;;24.70;90.70;;;;;;5032194;28;20507;-54
2023/06/04 07:26:47;;;;;;;5.30;1.10;;;25.40;62.50;;;;;;5035830;28;20034;-55
2023/06/04 07:29:14;;;;;;;1.58;1.45;;;;;;;;;;5052610;28;20017;-52
2023/06/04 07:31:41;;;;;;;6.10;1.60;;;25.50;92.80;;;;;;5048967;28;20042;-56
2023/06/04 07:34:06;;;;;;;1.25;1.10;;;25.40;71.40;;;;;;5032068;28;20397;-58
2023/06/04 07:36:32;;;;;;;5.05;1.42;;;25.60;63.70;;;;;;5041824;28;20047;-49
2023/06/04 07:38:58;;;;;;;7.97;1.58;;;26.50;61.30;;;;;;5035677;28;20049;-48
2023/06/04 07:41:25;;;;;;;3.22;1.25;;;26.70;60.60;;;;;;5044562;28;20025;-53
2023/06/04 07:43:50;;;;;;;3.55;1.33;;;26.80;63.20;;;;;;5038089;28;20028;-50
2023/06/04 07:46:18;;;;;;;4.15;1.23;;;26.30;66.60;;;;;;5032790;28;20481;-50
2023/06/04 07:48:44;;;;;;;4.53;1.25;;;26.20;68.00;;;;;;5031960;28;20018;-51
2023/06/04 07:51:11;;;;;;;6.28;1.80;;;25.90;79.80;;;;;;5031541;28;20029;-51
2023/06/04 07:53:37;;;;;;;6.63;1.20;;;26.10;74.10;;;;;;5042744;28;20028;-53
2023/06/04 07:56:03;;;;;;;1.35;1.25;;;25.60;75.00;;;;;;5051878;28;20036;-50
2023/06/04 07:58:29;;;;;;;6.18;1.20;;;25.90;74.30;;;;;;5042568;28;20029;-50
2023/06/04 08:00:55;;;;;;;6.20;1.50;;;26.60;73.80;;;;;;5043469;28;20032;-51
2023/06/04 08:03:21;;;;;;;2.10;1.30;;;27.00;73.50;;;;;;5031409;28;20465;-52
2023/06/04 08:05:47;;;;;;;1.45;1.15;;;27.10;72.20;;;;;;5031821;28;20052;-50
2023/06/04 08:08:12;;;;;;;2.53;1.38;;;26.90;72.70;;;;;;5031674;28;20144;-54
2023/06/04 08:10:39;;;;;;;1.50;1.35;;;26.70;72.90;;;;;;5031323;28;20100;-51
2023/06/04 08:13:05;;;;;;;10.65;2.53;;;26.40;73.70;;;;;;5031344;28;20389;-50
2023/06/04 08:15:30;;;;;;;1.77;1.20;;;26.10;73.10;;;;;;5030363;28;20045;-50
2023/06/04 08:17:56;;;;;;;1.33;1.05;;;25.90;74.00;;;;;;5031654;28;20381;-49
2023/06/04 08:20:22;;;;;;;7.63;1.58;;;25.80;73.80;;;;;;5031415;28;20032;-50
2023/06/04 08:22:49;;;;;;;2.28;1.13;;;25.10;90.70;;;;;;5031518;28;20068;-52
2023/06/04 08:25:15;;;;;;;1.35;1.10;;;25.10;84.90;;;;;;5029952;28;20073;-54
2023/06/04 08:27:42;;;;;;;2.13;1.40;;;24.60;62.00;;;;;;5031821;28;20056;-51
2023/06/04 08:30:08;;;;;;;2.08;1.40;;;24.10;62.60;;;;;;5031568;28;20013;-50
2023/06/04 08:32:34;;;;;;;3.05;1.30;;;23.90;63.50;;;;;;5031395;28;20079;-54
2023/06/04 08:35:00;;;;;;;3.20;1.55;;;23.60;63.40;;;;;;5031210;28;20080;-51
2023/06/04 08:37:26;;;;;;;7.47;1.75;;;23.30;64.50;;;;;;5031737;28;20033;-49
2023/06/04 08:39:52;;;;;;;3.10;1.30;;;23.50;63.90;;;;;;5031349;28;20029;-53
2023/06/04 08:42:30;;;;;;;3.65;1.88;;;23.40;63.90;;;;;;5029698;28;20025;-49
2023/06/04 08:44:57;;;;;;;6.32;1.38;;;23.50;64.00;;;;;;5031004;28;20025;-55
2023/06/04 08:47:25;;;;;;;6.60;1.40;;;23.50;65.10;;;;;;5031360;28;20053;-54
2023/06/04 08:49:51;;;;;;;4.13;1.20;;;23.60;65.20;;;;;;5031335;28;20024;-49
2023/06/04 08:52:21;;;;;;;1.05;0.95;;;23.80;64.50;;;;;;5029794;28;20443;-50
2023/06/04 08:54:48;;;;;;;2.65;1.40;;;;;;;;;;5030917;28;20396;-48
2023/06/04 08:57:14;;;;;;;3.08;1.42;;;;;;;;;;5032889;28;20136;-52
2023/06/04 08:59:40;;;;;;;1.45;1.35;;;;;;;;;;5038724;28;20029;-49
2023/06/04 09:02:06;;;;;;;2.05;1.40;;;;;;;;;;5037633;28;20033;-48
2023/06/04 09:04:32;;;;;;;5.13;1.83;;;;;;;;;;5037730;28;20029;-50
2023/06/04 09:07:01;;;;;;;4.40;1.35;;;;;;;;;;5039455;28;20030;-51
2023/06/04 09:09:29;;;;;;;3.88;1.17;;;;;;;;;;5039365;28;20446;-53
2023/06/04 09:11:56;;;;;;;5.10;1.73;;;;;;;;;;5038905;28;20076;-52
2023/06/04 09:14:22;;;;;;;2.47;1.20;;;;;;;;;;5039047;28;20435;-49
2023/06/04 09:16:49;;;;;;;5.53;1.90;;;;;;;;;;5039034;28;20095;-51
2023/06/04 09:19:16;;;;;;;8.40;1.38;;;24.40;62.70;;;;;;5040410;28;20393;-53
2023/06/04 09:21:58;;;;;;;1.60;1.38;;;24.20;62.20;;;;;;5048647;28;20025;-51
2023/06/04 09:24:38;;;;;;;2.92;1.55;;;23.90;63.20;;;;;;5042803;28;20507;-53
2023/06/04 09:27:13;;;;;;;2.58;1.45;;;24.00;63.70;;;;;;5047224;28;20100;-54
2023/06/04 09:29:40;;;;;;;8.57;1.55;;;24.20;64.70;;;;;;5057758;28;20082;-55
2023/06/04 09:32:05;;;;;;;1.88;1.40;;;24.10;63.80;;;;;;5056973;28;20029;-53
2023/06/04 09:34:31;;;;;;;2.90;1.67;;;24.30;62.80;;;;;;5053928;28;20110;-54
2023/06/04 09:36:58;;;;;;;2.65;1.30;;;24.30;63.70;;;;;;5047097;28;20037;-51
2023/06/04 09:39:24;;;;;;;2.72;1.50;;;24.20;62.50;;;;;;5056731;28;20116;-53
2023/06/04 09:42:02;;;;;;;3.72;1.30;;;23.80;63.30;;;;;;5039399;28;20101;-55
2023/06/04 09:44:31;;;;;;;6.57;1.75;;;23.80;62.60;;;;;;5044485;28;20029;-58
2023/06/04 09:46:58;;;;;;;3.13;1.48;;;23.70;62.60;;;;;;5043007;28;20021;-59
2023/06/04 09:49:24;;;;;;;8.05;1.25;;;23.60;63.20;;;;;;5043384;28;20036;-59
2023/06/04 09:51:50;;;;;;;5.22;1.80;;;23.70;63.50;;;;;;5051665;28;20025;-57
2023/06/04 09:54:16;;;;;;;3.03;1.48;;;24.00;64.00;;;;;;5045515;28;20057;-58
2023/06/04 09:56:41;;;;;;;4.30;1.50;;;24.10;63.90;;;;;;5044296;28;20037;-57
2023/06/04 09:59:09;;;;;;;3.97;1.25;;;24.00;61.50;;;;;;5043081;28;20051;-59
2023/06/04 10:01:39;;;;;;;5.93;1.20;;;23.70;62.20;;;;;;5042332;28;20033;-59
2023/06/04 10:04:07;;;;;;;1.35;1.00;;;23.80;62.90;;;;;;5041934;28;20076;-60
2023/06/04 10:06:35;;;;;;;6.65;1.35;;;23.90;62.90;;;;;;5041923;28;20025;-59
2023/06/04 10:09:05;;;;;;;6.10;1.33;;;24.10;64.10;;;;;;5042046;28;20017;-57
2023/06/04 10:11:37;;;;;;;3.35;1.40;;;24.00;61.40;;;;;;5040955;28;20017;-60
2023/06/04 10:14:25;;;;;;;3.70;1.38;;;24.20;62.10;;;;;;5038072;28;20393;-58
2023/06/04 10:16:51;;;;;;;1.67;1.38;;;24.30;62.00;;;;;;5042012;28;20441;-60
2023/06/04 10:19:18;;;;;;;7.47;1.20;;;24.40;62.20;;;;;;5042722;28;20033;-59
2023/06/04 10:21:44;;;;;;;3.22;2.03;;;24.30;61.10;;;;;;5041318;28;20370;-60
2023/06/04 10:24:10;;;;;;;1.63;1.45;;;24.20;61.60;;;;;;5041465;28;20033;-58
2023/06/04 10:26:37;;;;;;;7.97;1.20;;;24.10;61.70;;;;;;5042247;28;20032;-58
2023/06/04 10:29:03;;;;;;;15.32;10.18;;;24.10;62.20;;;;;;5059304;28;20024;-58
2023/06/04 10:31:29;;;;;;;17.73;10.70;;;24.20;63.60;;;;;;5041838;28;20029;-57
2023/06/04 10:33:56;;;;;;;9.90;3.10;;;24.10;59.40;;;;;;5033870;28;20036;-55
2023/06/04 10:36:23;;;;;;;2.33;1.40;;;24.00;59.50;;;;;;5044353;28;20021;-51
2023/06/04 10:38:52;;;;;;;2.55;1.58;;;24.00;61.00;;;;;;5050100;28;20062;-57
2023/06/04 10:41:21;;;;;;;7.53;1.50;;;23.90;61.20;;;;;;5048428;28;20021;-59
2023/06/04 10:43:49;;;;;;;3.80;1.20;;;24.00;61.20;;;;;;5053756;28;20029;-52
2023/06/04 10:46:18;;;;;;;2.33;1.80;;;24.00;60.10;;;;;;5043156;28;20018;-56
2023/06/04 10:48:52;;;;;;;4.32;1.58;;;24.00;60.70;;;;;;5033677;28;20111;-58
2023/06/04 10:51:34;;;;;;;2.80;1.25;;;23.70;60.40;;;;;;5034390;28;20027;-55
2023/06/04 10:54:01;;;;;;;4.43;1.30;;;23.60;60.00;;;;;;5044608;28;20036;-51
2023/06/04 10:56:32;;;;;;;2.63;1.52;;;23.60;61.50;;;;;;5042159;28;20025;-59
2023/06/04 10:58:59;;;;;;;2.97;1.20;;;23.60;60.50;;;;;;5053104;28;20033;-60
2023/06/04 11:01:26;;;;;;;1.52;1.27;;;23.50;60.60;;;;;;5057392;28;20031;-61
2023/06/04 11:03:52;;;;;;;3.83;1.20;;;23.60;60.50;;;;;;5041428;28;20028;-59
2023/06/04 11:06:18;;;;;;;1.27;1.17;;;23.50;60.00;;;;;;5052432;28;20481;-56
2023/06/04 11:08:43;;;;;;;5.43;1.48;;;23.50;61.00;;;;;;5052819;28;20050;-52
2023/06/04 11:11:13;;;;;;;1.52;1.10;;;23.50;60.70;;;;;;5052361;28;20013;-56
2023/06/04 11:13:39;;;;;;;1.27;1.17;;;23.60;60.60;;;;;;5040484;28;20029;-49
2023/06/04 11:16:18;;;;;;;3.88;1.42;;;23.50;60.00;;;;;;5044227;28;20093;-54
2023/06/04 11:18:55;;;;;;;4.03;1.40;;;23.50;61.70;;;;;;5053750;28;20044;-49
2023/06/04 11:21:21;;;;;;;1.77;1.23;;;23.50;60.30;;;;;;5044669;28;20084;-51
2023/06/04 11:23:46;;;;;;;5.30;1.73;;;23.60;61.10;;;;;;5048814;28;20056;-56
2023/06/04 11:26:12;;;;;;;6.00;2.17;;;23.60;60.40;;;;;;5049401;28;20028;-53
2023/06/04 11:28:40;;;;;;;2.92;2.35;;;23.60;60.30;;;;;;5050392;28;20113;-57
2023/06/04 11:31:05;;;;;;;1.98;1.50;;;23.60;60.00;;;;;;5038755;28;20143;-56
2023/06/04 11:33:42;;;;;;;28.65;20.60;;;23.60;60.50;;;;;;5045599;28;20112;-65
2023/06/04 11:36:08;;;;;;;4.75;2.50;;;23.60;59.70;;;;;;5041292;28;20030;-55
2023/06/04 11:38:33;;;;;;;5.20;1.38;;;23.60;60.40;;;;;;5032761;28;20032;-53
2023/06/04 11:41:01;;;;;;;1.60;1.50;;;23.50;59.20;;;;;;5050199;28;20413;-51
2023/06/04 11:43:28;;;;;;;2.15;1.40;;;23.40;59.90;;;;;;5047284;28;20064;-56
2023/06/04 11:45:53;;;;;;;4.30;1.50;;;23.30;60.00;;;;;;5042107;28;20427;-52
2023/06/04 11:48:20;;;;;;;1.55;1.45;;;23.40;61.80;;;;;;5052329;28;20024;-50
2023/06/04 11:50:46;;;;;;;4.10;1.40;;;23.50;59.10;;;;;;5036103;28;20077;-47
2023/06/04 11:53:11;;;;;;;4.15;1.83;;;23.60;60.00;;;;;;5046480;28;20120;-51
2023/06/04 11:55:39;;;;;;;1.30;1.20;;;23.60;60.70;;;;;;5052011;28;20423;-49
2023/06/04 11:58:04;;;;;;;1.40;1.30;;;23.70;59.50;;;;;;5051098;28;20041;-53
2023/06/04 12:00:30;;;;;;;5.00;1.42;;;23.80;59.90;;;;;;5051746;28;21098;-53
2023/06/04 12:02:56;;;;;;;1.92;1.17;;;23.90;59.00;;;;;;5051905;28;20025;-48
2023/06/04 12:05:28;;;;;;;4.53;1.63;;;23.90;59.00;;;;;;5048447;28;20458;-51
2023/06/04 12:08:05;;;;;;;2.60;1.10;;;23.90;57.90;;;;;;5049426;28;20492;-50
2023/06/04 12:10:37;;;;;;;3.10;1.70;;;23.80;57.60;;;;;;5051797;28;20464;-51
2023/06/04 12:13:03;;;;;;;7.40;1.88;;;23.80;58.40;;;;;;5051914;28;20396;-53
2023/06/04 12:17:54;;;;;;;4.25;1.60;;;24.00;58.20;;;;;;5028466;22;20473;-52
2023/06/04 12:20:33;;;;;;;2.83;1.23;;;24.00;58.60;;;;;;5010082;28;20026;-54
2023/06/04 12:22:58;;;;;;;3.53;1.48;;;24.10;58.00;;;;;;4992366;28;20101;-51
2023/06/04 12:25:26;;;;;;;7.00;1.85;;;24.10;57.00;;;;;;4992269;28;20118;-57
2023/06/04 12:27:51;;;;;;;5.22;1.70;;;24.10;57.60;;;;;;4992431;28;20040;-54
2023/06/04 12:30:17;;;;;;;6.47;1.40;;;24.20;58.30;;;;;;4991807;28;20102;-53
2023/06/04 12:32:43;;;;;;;2.28;1.60;;;24.30;57.40;;;;;;4991319;28;20502;-53
2023/06/04 12:35:09;;;;;;;3.17;1.30;;;24.30;56.40;;;;;;4992295;28;20105;-56
2023/06/04 12:37:34;;;;;;;3.53;1.38;;;24.30;56.00;;;;;;4991123;28;20169;-53
2023/06/04 12:40:00;;;;;;;3.33;1.10;;;24.20;55.90;;;;;;4990913;28;20076;-56
2023/06/04 12:42:27;;;;;;;6.35;1.40;;;24.20;56.80;;;;;;4991835;28;20073;-51
2023/06/04 12:44:53;;;;;;;3.80;1.38;;;24.10;55.20;;;;;;4991683;28;20033;-53
2023/06/04 12:47:20;;;;;;;5.35;1.27;;;24.00;55.20;;;;;;4992072;28;20031;-56
2023/06/04 12:49:46;;;;;;;3.88;1.90;;;24.00;57.00;;;;;;4992140;28;20018;-54
2023/06/04 12:52:13;;;;;;;2.00;1.30;;;24.10;55.20;;;;;;4991689;28;20026;-55